createdAt,value
2019-05-23T00:01:45.230Z,1999.90
2019-05-23T00:04:20.947Z,1999.90
2019-05-23T00:06:49.239Z,1999.90
2019-05-23T00:09:21.195Z,1999.90
2019-05-23T00:11:56.957Z,1999.90
2019-05-23T00:14:32.795Z,1999.90
2019-05-23T00:17:02.132Z,1999.90
2019-05-23T00:19:32.480Z,1999.90
2019-05-23T00:22:01.530Z,1999.90
2019-05-23T00:24:30.694Z,1999.90
2019-05-23T00:26:59.637Z,1999.90
2019-05-23T00:29:29.060Z,1999.90
2019-05-23T00:31:59.265Z,1999.90
2019-05-23T00:34:29.317Z,1999.90
2019-05-23T00:36:57.616Z,1999.90
2019-05-23T00:39:25.934Z,1734.53
2019-05-23T00:41:54.805Z,1999.90
2019-05-23T00:44:23.430Z,1999.90
2019-05-23T00:46:52.642Z,1999.90
2019-05-23T00:49:21.434Z,1898.97
2019-05-23T00:51:50.372Z,1989.60
2019-05-23T00:54:19.693Z,1999.90
2019-05-23T00:56:48.172Z,1999.90
2019-05-23T00:59:26.580Z,1999.90
2019-05-23T01:01:47.597Z,1999.90
2019-05-23T01:04:16.833Z,1999.90
2019-05-23T01:06:45.191Z,1999.90
2019-05-23T01:09:14.757Z,1999.90
2019-05-23T01:11:44.704Z,1999.90
2019-05-23T01:14:13.902Z,1999.90
2019-05-23T01:16:42.461Z,1999.90
2019-05-23T01:19:12.208Z,1999.90
2019-05-23T01:21:56.886Z,1999.90
2019-05-23T01:24:41.862Z,1999.90
2019-05-23T01:27:10.246Z,1999.90
2019-05-23T01:29:40.580Z,1999.90
2019-05-23T01:32:20.495Z,1999.90
2019-05-23T01:34:49.452Z,1999.90
2019-05-23T01:37:18.914Z,1999.90
2019-05-23T01:39:47.750Z,1804.03
2019-05-23T01:42:17.501Z,1835.67
2019-05-23T01:44:47.442Z,1923.50
2019-05-23T01:47:16.026Z,1762.73
2019-05-23T01:49:44.660Z,1996.27
2019-05-23T01:52:13.449Z,1870.60
2019-05-23T01:54:42.399Z,1774.03
2019-05-23T01:57:10.990Z,1807.90
2019-05-23T01:59:39.515Z,1885.37
2019-05-23T02:02:09.552Z,1697.57
2019-05-23T02:04:37.840Z,1678.20
2019-05-23T02:07:07.527Z,1613.83
2019-05-23T02:09:36.096Z,1635.20
2019-05-23T02:12:08.457Z,1596.60
2019-05-23T02:14:38.607Z,1592.97
2019-05-23T02:17:07.362Z,1644.93
2019-05-23T02:19:35.937Z,1535.63
2019-05-23T02:22:04.318Z,1235.27
2019-05-23T02:24:32.628Z,1171.97
2019-05-23T02:27:01.549Z,1199.60
2019-05-23T02:29:29.882Z,1264.43
2019-05-23T02:31:58.867Z,1127.73
2019-05-23T02:34:28.953Z,1062.97
2019-05-23T02:36:58.640Z,882.63
2019-05-23T02:39:31.045Z,943.73
2019-05-23T02:42:01.265Z,823.77
2019-05-23T02:44:31.365Z,832.93
2019-05-23T02:47:04.889Z,829.97
2019-05-23T02:49:34.352Z,502.90
2019-05-23T02:52:06.921Z,403.50
2019-05-23T02:54:37.411Z,503.23
2019-05-23T02:57:07.585Z,409.20
2019-05-23T02:59:48.339Z,453.60
2019-05-23T03:02:45.688Z,566.13
2019-05-23T03:05:16.288Z,489.00
2019-05-23T03:07:45.147Z,507.17
2019-05-23T03:10:14.005Z,469.67
2019-05-23T03:12:43.805Z,485.50
2019-05-23T03:15:15.296Z,529.67
2019-05-23T03:17:47.154Z,613.63
2019-05-23T03:20:16.286Z,514.80
2019-05-23T03:22:50.690Z,398.67
2019-05-23T03:25:31.397Z,402.50
2019-05-23T03:27:59.756Z,427.70
2019-05-23T03:30:31.249Z,419.37
2019-05-23T03:33:03.702Z,442.43
2019-05-23T03:35:48.465Z,440.67
2019-05-23T03:38:16.946Z,425.63
2019-05-23T03:40:45.477Z,427.17
2019-05-23T03:43:13.777Z,451.37
2019-05-23T03:45:44.466Z,443.30
2019-05-23T03:48:13.741Z,458.40
2019-05-23T03:50:43.479Z,430.97
2019-05-23T03:53:13.251Z,420.43
2019-05-23T03:55:42.817Z,428.57
2019-05-23T03:58:11.558Z,424.27
2019-05-23T04:00:41.503Z,399.53
2019-05-23T04:03:11.426Z,468.30
2019-05-23T04:05:40.768Z,392.23
2019-05-23T04:08:09.988Z,429.80
2019-05-23T04:10:39.042Z,395.43
2019-05-23T04:13:08.074Z,379.13
2019-05-23T04:15:37.864Z,365.83
2019-05-23T04:18:06.605Z,407.57
2019-05-23T04:20:35.171Z,386.93
2019-05-23T04:23:04.133Z,449.73
2019-05-23T04:25:32.528Z,464.73
2019-05-23T04:28:01.490Z,392.77
2019-05-23T04:30:29.879Z,415.83
2019-05-23T04:32:58.168Z,544.00
2019-05-23T04:35:26.957Z,409.10
2019-05-23T04:37:55.419Z,436.20
2019-05-23T04:40:24.047Z,361.20
2019-05-23T04:42:52.340Z,571.80
2019-05-23T04:45:21.482Z,338.07
2019-05-23T04:47:50.416Z,360.33
2019-05-23T04:50:18.794Z,419.80
2019-05-23T04:52:47.471Z,889.07
2019-05-23T04:55:16.715Z,868.43
2019-05-23T04:57:45.350Z,696.20
2019-05-23T05:00:15.942Z,650.03
2019-05-23T05:02:45.074Z,684.87
2019-05-23T05:05:13.633Z,953.10
2019-05-23T05:07:41.922Z,976.67
2019-05-23T05:10:13.211Z,1075.43
2019-05-23T05:12:42.240Z,967.73
2019-05-23T05:15:11.367Z,1095.10
2019-05-23T05:17:41.075Z,912.30
2019-05-23T05:20:09.631Z,1147.13
2019-05-23T05:22:38.036Z,1214.20
2019-05-23T05:25:08.578Z,1388.77
2019-05-23T05:27:37.356Z,1659.93
2019-05-23T05:30:07.418Z,1999.90
2019-05-23T05:32:44.712Z,1999.90
2019-05-23T05:35:07.060Z,1999.90
2019-05-23T05:37:35.623Z,1999.90
2019-05-23T05:40:05.845Z,1999.90
2019-05-23T05:42:34.214Z,1742.87
2019-05-23T05:45:03.012Z,1999.90
2019-05-23T05:47:31.450Z,1999.90
2019-05-23T05:49:59.929Z,1999.90
2019-05-23T05:52:28.400Z,1999.90
2019-05-23T05:54:56.797Z,1999.90
2019-05-23T05:57:25.238Z,1999.90
2019-05-23T05:59:53.549Z,1999.90
2019-05-23T06:02:21.921Z,1999.90
2019-05-23T06:04:50.409Z,1999.90
2019-05-23T06:07:29.306Z,1999.90
2019-05-23T06:09:58.491Z,1999.90
2019-05-23T06:12:27.037Z,1999.90
2019-05-23T06:14:55.403Z,1999.90
2019-05-23T06:17:24.468Z,1999.90
2019-05-23T06:19:53.321Z,1999.90
2019-05-23T06:22:23.493Z,1999.90
2019-05-23T06:24:55.460Z,1999.90
2019-05-23T06:27:22.462Z,1999.90
2019-05-23T06:29:50.939Z,1999.90
2019-05-23T06:32:20.963Z,1999.90
2019-05-23T06:34:49.932Z,1999.90
2019-05-23T06:37:18.326Z,1999.90
2019-05-23T06:39:46.694Z,1999.90
2019-05-23T06:42:15.342Z,1999.90
2019-05-23T06:44:43.654Z,1999.90
2019-05-23T06:47:12.145Z,1999.90
2019-05-23T06:49:43.565Z,1999.90
2019-05-23T06:52:11.957Z,1999.90
2019-05-23T06:54:40.330Z,1999.90
2019-05-23T06:57:08.641Z,1999.90
2019-05-23T06:59:36.941Z,1003.10
2019-05-23T07:02:05.309Z,14.90
2019-05-23T07:04:33.668Z,14.80
2019-05-23T07:07:02.357Z,175.90
2019-05-23T07:09:32.075Z,32.30
2019-05-23T07:12:00.752Z,16.83
2019-05-23T07:14:30.187Z,14.87
2019-05-23T07:16:58.745Z,17.13
2019-05-23T07:19:27.040Z,17.43
2019-05-23T07:21:55.417Z,15.70
2019-05-23T07:24:24.071Z,15.50
2019-05-23T07:26:52.382Z,17.80
2019-05-23T07:29:20.834Z,15.70
2019-05-23T07:31:49.134Z,16.60
2019-05-23T07:34:17.683Z,14.60
2019-05-23T07:36:46.104Z,15.77
2019-05-23T07:39:14.608Z,16.37
2019-05-23T07:41:42.912Z,14.70
2019-05-23T07:44:11.901Z,15.43
2019-05-23T07:46:40.287Z,16.80
2019-05-23T07:49:08.716Z,17.00
2019-05-23T07:51:37.087Z,19.37
2019-05-23T07:54:18.848Z,16.10
2019-05-23T07:56:47.494Z,19.20
2019-05-23T07:59:15.848Z,14.40
2019-05-23T08:01:47.129Z,16.83
2019-05-23T08:04:21.853Z,16.40
2019-05-23T08:06:49.009Z,16.43
2019-05-23T08:09:16.335Z,15.40
2019-05-23T08:11:44.986Z,17.67
2019-05-23T08:14:13.543Z,14.93
2019-05-23T08:16:41.923Z,18.47
2019-05-23T08:19:10.217Z,15.27
2019-05-23T08:21:38.599Z,14.77
2019-05-23T08:24:07.543Z,14.47
2019-05-23T08:26:36.807Z,15.90
2019-05-23T08:29:24.856Z,16.63
2019-05-23T08:31:37.067Z,16.40
2019-05-23T08:34:06.197Z,17.13
2019-05-23T08:36:34.494Z,16.67
2019-05-23T08:39:04.651Z,17.57
2019-05-23T08:41:33.067Z,23.03
2019-05-23T08:44:02.413Z,16.53
2019-05-23T08:46:30.939Z,16.63
2019-05-23T08:49:00.685Z,16.40
2019-05-23T08:51:28.969Z,18.37
2019-05-23T08:53:57.356Z,18.33
2019-05-23T08:56:25.644Z,16.63
2019-05-23T08:58:54.222Z,16.40
2019-05-23T09:01:22.575Z,18.10
2019-05-23T09:03:50.954Z,17.13
2019-05-23T09:06:19.985Z,18.57
2019-05-23T09:08:49.052Z,18.57
2019-05-23T09:11:17.710Z,18.80
2019-05-23T09:13:46.013Z,18.47
2019-05-23T09:16:14.670Z,16.33
2019-05-23T09:18:43.349Z,16.83
2019-05-23T09:21:11.867Z,21.90
2019-05-23T09:23:40.180Z,18.73
2019-05-23T09:26:08.474Z,19.53
2019-05-23T09:28:37.046Z,18.07
2019-05-23T09:31:05.882Z,21.30
2019-05-23T09:33:34.183Z,18.63
2019-05-23T09:36:02.464Z,20.70
2019-05-23T09:38:30.767Z,18.30
2019-05-23T09:40:59.051Z,16.37
2019-05-23T09:43:27.729Z,16.63
2019-05-23T09:45:56.014Z,15.07
2019-05-23T09:48:24.409Z,13.87
2019-05-23T09:50:52.704Z,15.53
2019-05-23T09:53:21.348Z,16.33
2019-05-23T09:55:49.699Z,16.50
2019-05-23T09:58:17.998Z,16.50
2019-05-23T10:00:46.305Z,15.30
2019-05-23T10:03:14.694Z,15.90
2019-05-23T10:05:44.330Z,23.23
2019-05-23T10:08:12.865Z,13.13
2019-05-23T10:10:41.490Z,15.07
2019-05-23T10:13:09.862Z,13.97
2019-05-23T10:15:39.953Z,11.27
2019-05-23T10:18:15.991Z,17.50
2019-05-23T10:20:44.744Z,14.00
2019-05-23T10:23:13.176Z,15.23
2019-05-23T10:25:41.430Z,18.80
2019-05-23T10:28:09.785Z,12.80
2019-05-23T10:30:38.139Z,11.53
2019-05-23T10:33:12.147Z,11.17
2019-05-23T10:35:37.070Z,15.00
2019-05-23T10:38:05.357Z,11.60
2019-05-23T10:40:34.024Z,12.77
2019-05-23T10:43:02.383Z,17.67
2019-05-23T10:45:30.702Z,13.27
2019-05-23T10:47:59.052Z,14.03
2019-05-23T10:50:41.963Z,14.10
2019-05-23T10:52:57.402Z,12.83
2019-05-23T10:55:25.722Z,12.33
2019-05-23T10:57:53.980Z,17.43
2019-05-23T11:00:23.390Z,12.47
2019-05-23T11:02:51.671Z,12.20
2019-05-23T11:05:20.845Z,13.00
2019-05-23T11:07:49.274Z,12.90
2019-05-23T11:10:18.622Z,12.30
2019-05-23T11:12:46.904Z,12.93
2019-05-23T11:15:16.152Z,11.83
2019-05-23T11:17:44.927Z,11.83
2019-05-23T11:20:14.039Z,15.63
2019-05-23T11:22:42.493Z,14.30
2019-05-23T11:25:13.333Z,12.00
2019-05-23T11:27:41.780Z,12.07
2019-05-23T11:30:12.488Z,11.90
2019-05-23T11:32:41.196Z,12.50
2019-05-23T11:35:09.501Z,10.30
2019-05-23T11:37:37.800Z,11.87
2019-05-23T11:40:07.433Z,12.37
2019-05-23T11:42:36.001Z,10.13
2019-05-23T11:45:05.763Z,11.20
2019-05-23T11:47:34.065Z,11.20
2019-05-23T11:50:02.526Z,11.13
2019-05-23T11:52:30.894Z,10.93
2019-05-23T11:54:59.705Z,12.73
2019-05-23T11:57:28.019Z,10.60
2019-05-23T11:59:56.346Z,7.80
2019-05-23T12:02:35.191Z,9.53
2019-05-23T12:05:06.013Z,8.83
2019-05-23T12:07:34.657Z,7.50
2019-05-23T12:10:07.505Z,8.47
2019-05-23T12:12:35.869Z,7.73
2019-05-23T12:15:07.927Z,6.03
2019-05-23T12:17:36.225Z,6.57
2019-05-23T12:20:06.242Z,8.47
2019-05-23T12:22:34.971Z,11.93
2019-05-23T12:25:21.093Z,5.83
2019-05-23T12:27:35.336Z,8.87
2019-05-23T12:30:06.735Z,7.17
2019-05-23T12:32:34.989Z,4.83
2019-05-23T12:35:11.135Z,6.57
2019-05-23T12:37:34.069Z,6.00
2019-05-23T12:40:06.154Z,6.67
2019-05-23T12:42:34.469Z,8.60
2019-05-23T12:45:02.803Z,5.50
2019-05-23T12:47:32.715Z,3.97
2019-05-23T12:50:02.679Z,4.37
2019-05-23T12:52:32.698Z,4.53
2019-05-23T12:55:01.008Z,11.77
2019-05-23T12:57:29.302Z,4.23
2019-05-23T12:59:57.915Z,4.20
2019-05-23T13:02:27.843Z,5.07
2019-05-23T13:04:57.076Z,4.00
2019-05-23T13:07:35.645Z,4.53
2019-05-23T13:09:55.656Z,4.73
2019-05-23T13:12:24.104Z,4.00
2019-05-23T13:14:55.932Z,5.63
2019-05-23T13:17:22.678Z,7.40
2019-05-23T13:19:51.026Z,6.30
2019-05-23T13:22:19.445Z,4.63
2019-05-23T13:24:52.548Z,3.33
2019-05-23T13:27:18.424Z,9.67
2019-05-23T13:29:46.781Z,3.67
2019-05-23T13:32:15.231Z,3.03
2019-05-23T13:34:43.655Z,4.33
2019-05-23T13:37:16.737Z,4.80
2019-05-23T13:39:43.674Z,3.97
2019-05-23T13:42:11.950Z,3.60
2019-05-23T13:44:40.243Z,3.00
2019-05-23T13:47:08.600Z,3.30
2019-05-23T13:49:37.329Z,9.67
2019-05-23T13:52:05.615Z,3.30
2019-05-23T13:54:36.391Z,3.07
2019-05-23T13:57:04.521Z,5.93
2019-05-23T13:59:33.042Z,4.80
2019-05-23T14:02:02.707Z,3.77
2019-05-23T14:04:30.991Z,3.90
2019-05-23T14:06:59.270Z,3.63
2019-05-23T14:09:28.129Z,3.80
2019-05-23T14:12:20.027Z,3.20
2019-05-23T14:14:26.543Z,4.73
2019-05-23T14:16:56.488Z,5.50
2019-05-23T14:19:29.009Z,5.90
2019-05-23T14:21:54.793Z,3.27
2019-05-23T14:24:23.154Z,3.87
2019-05-23T14:26:58.929Z,4.43
2019-05-23T14:29:27.221Z,3.33
2019-05-23T14:32:03.269Z,3.77
2019-05-23T14:34:31.556Z,3.13
2019-05-23T14:37:16.869Z,4.13
2019-05-23T14:39:45.666Z,2.67
2019-05-23T14:42:28.025Z,3.87
2019-05-23T14:44:56.933Z,3.87
2019-05-23T14:47:29.786Z,2.63
2019-05-23T14:50:16.095Z,3.27
2019-05-23T14:52:49.042Z,3.03
2019-05-23T14:55:17.393Z,5.10
2019-05-23T14:57:45.761Z,3.37
2019-05-23T15:00:14.410Z,3.33
2019-05-23T15:02:42.800Z,4.83
2019-05-23T15:05:11.193Z,6.60
2019-05-23T15:07:39.544Z,4.10
2019-05-23T15:10:09.898Z,6.13
2019-05-23T15:12:38.262Z,5.87
2019-05-23T15:15:06.874Z,3.37
2019-05-23T15:17:35.167Z,7.00
2019-05-23T15:20:04.895Z,2.80
2019-05-23T15:22:33.176Z,3.43
2019-05-23T15:25:01.557Z,6.70
2019-05-23T15:27:33.042Z,3.43
2019-05-23T15:30:00.174Z,3.00
2019-05-23T15:32:28.448Z,3.47
2019-05-23T15:34:56.730Z,3.60
2019-05-23T15:37:25.093Z,4.57
2019-05-23T15:39:53.377Z,3.53
2019-05-23T15:42:21.674Z,3.20
2019-05-23T15:44:50.141Z,4.37
2019-05-23T15:47:20.409Z,3.03
2019-05-23T15:49:50.324Z,4.03
2019-05-23T15:52:26.215Z,3.90
2019-05-23T15:55:02.328Z,3.43
2019-05-23T15:57:35.548Z,4.77
2019-05-23T16:00:12.543Z,6.93
2019-05-23T16:02:42.850Z,3.97
2019-05-23T16:05:12.955Z,5.43
2019-05-23T16:07:41.237Z,3.07
2019-05-23T16:10:10.530Z,2.80
2019-05-23T16:12:38.839Z,8.57
2019-05-23T16:15:07.657Z,5.70
2019-05-23T16:17:36.017Z,3.37
2019-05-23T16:20:05.637Z,5.67
2019-05-23T16:22:33.935Z,4.03
2019-05-23T16:25:02.211Z,6.57
2019-05-23T16:27:30.638Z,2.83
2019-05-23T16:29:58.885Z,5.63
2019-05-23T16:32:27.319Z,4.50
2019-05-23T16:34:55.605Z,4.20
2019-05-23T16:37:23.991Z,3.87
2019-05-23T16:39:52.260Z,2.60
2019-05-23T16:42:20.576Z,4.40
2019-05-23T16:44:48.836Z,3.33
2019-05-23T16:47:18.120Z,3.00
2019-05-23T16:49:46.405Z,6.50
2019-05-23T16:52:14.696Z,6.00
2019-05-23T16:54:44.685Z,5.00
2019-05-23T16:57:30.784Z,5.23
2019-05-23T17:00:09.449Z,5.33
2019-05-23T17:02:39.443Z,9.00
2019-05-23T17:05:25.844Z,4.27
2019-05-23T17:07:58.357Z,4.30
2019-05-23T17:10:43.331Z,3.53
2019-05-23T17:13:22.207Z,4.80
2019-05-23T17:15:54.788Z,2.33
2019-05-23T17:18:36.656Z,2.50
2019-05-23T17:21:24.601Z,3.53
2019-05-23T17:24:00.079Z,2.60
2019-05-23T17:26:38.656Z,2.77
2019-05-23T17:29:08.588Z,3.83
2019-05-23T17:31:41.277Z,2.97
2019-05-23T17:34:09.639Z,2.30
2019-05-23T17:36:37.988Z,7.57
2019-05-23T17:39:09.248Z,2.57
2019-05-23T17:41:37.535Z,2.53
2019-05-23T17:44:05.875Z,3.40
2019-05-23T17:46:34.224Z,2.27
2019-05-23T17:49:02.518Z,3.50
2019-05-23T17:51:30.814Z,3.73
2019-05-23T17:53:59.104Z,6.00
2019-05-23T17:56:27.398Z,3.47
2019-05-23T17:58:56.123Z,4.10
2019-05-23T18:01:25.521Z,2.97
2019-05-23T18:03:54.161Z,2.27
2019-05-23T18:06:23.029Z,5.17
2019-05-23T18:08:51.776Z,2.73
2019-05-23T18:11:20.339Z,4.43
2019-05-23T18:13:49.197Z,5.40
2019-05-23T18:16:19.241Z,1.73
2019-05-23T18:18:47.537Z,1.93
2019-05-23T18:21:16.667Z,5.07
2019-05-23T18:23:45.828Z,3.83
2019-05-23T18:26:14.142Z,3.17
2019-05-23T18:28:43.093Z,1.97
2019-05-23T18:31:21.934Z,3.70
2019-05-23T18:33:50.573Z,1.87
2019-05-23T18:36:19.681Z,2.20
2019-05-23T18:38:47.952Z,2.40
2019-05-23T18:41:16.738Z,1.70
2019-05-23T18:43:45.371Z,2.10
2019-05-23T18:46:15.374Z,4.13
2019-05-23T18:48:43.724Z,3.37
2019-05-23T18:51:12.009Z,2.43
2019-05-23T18:53:40.307Z,4.20
2019-05-23T18:56:08.593Z,3.83
2019-05-23T18:58:36.895Z,4.70
2019-05-23T19:01:06.872Z,1.93
2019-05-23T19:03:35.804Z,2.47
2019-05-23T19:06:04.084Z,5.53
2019-05-23T19:08:32.555Z,2.20
2019-05-23T19:11:01.376Z,2.37
2019-05-23T19:13:29.736Z,2.27
2019-05-23T19:15:58.010Z,3.17
2019-05-23T19:18:26.608Z,3.13
2019-05-23T19:20:55.864Z,2.60
2019-05-23T19:23:25.270Z,9.00
2019-05-23T19:25:53.833Z,5.43
2019-05-23T19:28:22.663Z,3.43
2019-05-23T19:30:51.180Z,2.27
2019-05-23T19:33:19.481Z,5.97
2019-05-23T19:35:48.277Z,2.73
2019-05-23T19:38:16.668Z,3.33
2019-05-23T19:40:45.031Z,6.13
2019-05-23T19:43:15.398Z,6.00
2019-05-23T19:45:43.837Z,2.27
2019-05-23T19:48:12.113Z,3.17
2019-05-23T19:50:41.886Z,3.20
2019-05-23T19:53:10.161Z,2.70
2019-05-23T19:55:40.354Z,2.50
2019-05-23T19:58:08.796Z,3.40
2019-05-23T20:00:37.668Z,3.20
2019-05-23T20:03:05.950Z,3.43
2019-05-23T20:05:35.950Z,7.57
2019-05-23T20:08:05.007Z,2.67
2019-05-23T20:10:34.300Z,2.37
2019-05-23T20:13:02.579Z,2.37
2019-05-23T20:15:32.035Z,5.30
2019-05-23T20:18:00.615Z,4.33
2019-05-23T20:20:29.847Z,6.80
2019-05-23T20:22:58.406Z,3.60
2019-05-23T20:25:26.774Z,4.13
2019-05-23T20:27:55.058Z,6.30
2019-05-23T20:30:45.601Z,5.60
2019-05-23T20:33:14.689Z,4.57
2019-05-23T20:35:43.547Z,6.13
2019-05-23T20:38:11.811Z,6.37
2019-05-23T20:40:40.339Z,8.37
2019-05-23T20:43:08.615Z,8.40
2019-05-23T20:45:37.551Z,5.47
2019-05-23T20:48:06.888Z,8.13
2019-05-23T20:50:35.332Z,5.50
2019-05-23T20:53:03.795Z,4.27
2019-05-23T20:55:32.106Z,4.63
2019-05-23T20:58:00.384Z,5.20
2019-05-23T21:00:36.081Z,5.13
2019-05-23T21:03:04.871Z,4.93
2019-05-23T21:05:33.242Z,5.43
2019-05-23T21:08:01.542Z,6.23
2019-05-23T21:10:47.114Z,4.27
2019-05-23T21:13:15.729Z,6.83
2019-05-23T21:15:44.215Z,6.10
2019-05-23T21:18:13.213Z,3.77
2019-05-23T21:20:41.584Z,9.30
2019-05-23T21:23:10.016Z,5.80
2019-05-23T21:25:39.929Z,6.30
2019-05-23T21:28:08.296Z,3.63
2019-05-23T21:30:36.642Z,5.03
2019-05-23T21:33:06.280Z,3.20
2019-05-23T21:35:34.573Z,3.50
2019-05-23T21:38:02.978Z,4.37
2019-05-23T21:40:37.139Z,5.53
2019-05-23T21:43:05.975Z,4.13
2019-05-23T21:45:34.491Z,6.53
2019-05-23T21:48:03.092Z,3.27
2019-05-23T21:50:31.682Z,6.73
2019-05-23T21:52:59.960Z,8.07
2019-05-23T21:55:42.398Z,4.27
2019-05-23T21:58:12.696Z,3.33
2019-05-23T22:01:06.629Z,3.50
2019-05-23T22:03:40.477Z,5.03
2019-05-23T22:06:11.741Z,4.23
2019-05-23T22:08:40.807Z,3.60
2019-05-23T22:11:09.650Z,6.07
2019-05-23T22:13:37.940Z,3.87
2019-05-23T22:16:06.893Z,4.00
2019-05-23T22:18:35.181Z,7.17
2019-05-23T22:21:03.457Z,4.53
2019-05-23T22:23:34.546Z,5.20
2019-05-23T22:26:02.025Z,3.87
2019-05-23T22:28:30.482Z,4.80
2019-05-23T22:30:58.839Z,9.30
2019-05-23T22:33:28.768Z,5.37
2019-05-23T22:35:57.421Z,4.20
2019-05-23T22:38:25.712Z,3.40
2019-05-23T22:40:54.193Z,3.33
2019-05-23T22:43:23.108Z,4.00
2019-05-23T22:45:51.532Z,3.37
2019-05-23T22:48:19.896Z,4.10
2019-05-23T22:50:48.202Z,4.93
2019-05-23T22:53:16.635Z,7.30
2019-05-23T22:55:44.908Z,3.40
2019-05-23T22:58:13.206Z,3.43
2019-05-23T23:00:43.419Z,3.30
2019-05-23T23:03:11.741Z,4.37
2019-05-23T23:05:40.059Z,6.97
2019-05-23T23:08:08.623Z,4.47
2019-05-23T23:10:36.901Z,4.00
2019-05-23T23:13:05.273Z,5.10
2019-05-23T23:15:34.121Z,3.27
2019-05-23T23:18:02.393Z,4.20
2019-05-23T23:20:30.705Z,6.20
2019-05-23T23:22:59.048Z,6.97
2019-05-23T23:25:27.333Z,5.40
2019-05-23T23:27:55.680Z,3.53
2019-05-23T23:30:40.542Z,5.60
2019-05-23T23:33:08.882Z,3.97
2019-05-23T23:35:37.171Z,3.70
2019-05-23T23:38:05.462Z,6.50
2019-05-23T23:40:34.403Z,4.67
2019-05-23T23:43:02.675Z,4.70
2019-05-23T23:45:48.906Z,4.73
2019-05-23T23:48:34.880Z,4.00
2019-05-23T23:51:20.976Z,3.20
2019-05-23T23:54:07.640Z,4.93
2019-05-23T23:56:53.942Z,6.13
2019-05-23T23:59:21.538Z,3.83
